sensor_id;sensor_type;location;lat;lon;timestamp;P1;durP1;ratioP1;P2;durP2;ratioP2
1320;SDS011;653;51.480;11.992;2023-06-14T00:02:10;3.20;;;2.90;;
1320;SDS011;653;51.480;11.992;2023-06-14T00:04:37;5.63;;;3.80;;
1320;SDS011;653;51.480;11.992;2023-06-14T00:07:05;3.47;;;3.17;;
1320;SDS011;653;51.480;11.992;2023-06-14T00:09:34;3.87;;;3.57;;
1320;SDS011;653;51.480;11.992;2023-06-14T00:12:01;4.30;;;3.20;;
1320;SDS011;653;51.480;11.992;2023-06-14T00:14:27;6.20;;;3.73;;
1320;SDS011;653;51.480;11.992;2023-06-14T00:16:53;3.77;;;3.33;;
1320;SDS011;653;51.480;11.992;2023-06-14T00:19:26;5.70;;;3.53;;
1320;SDS011;653;51.480;11.992;2023-06-14T00:21:51;5.77;;;3.07;;
1320;SDS011;653;51.480;11.992;2023-06-14T00:24:19;4.40;;;3.10;;
1320;SDS011;653;51.480;11.992;2023-06-14T00:26:46;6.23;;;3.00;;
1320;SDS011;653;51.480;11.992;2023-06-14T00:29:12;3.30;;;3.00;;
1320;SDS011;653;51.480;11.992;2023-06-14T00:31:37;2.93;;;2.63;;
1320;SDS011;653;51.480;11.992;2023-06-14T00:34:04;4.40;;;4.00;;
1320;SDS011;653;51.480;11.992;2023-06-14T00:36:31;3.20;;;3.00;;
1320;SDS011;653;51.480;11.992;2023-06-14T00:38:56;4.00;;;3.20;;
1320;SDS011;653;51.480;11.992;2023-06-14T00:41:23;4.20;;;3.50;;
1320;SDS011;653;51.480;11.992;2023-06-14T00:43:50;3.67;;;3.37;;
1320;SDS011;653;51.480;11.992;2023-06-14T00:46:16;3.77;;;3.37;;
1320;SDS011;653;51.480;11.992;2023-06-14T00:48:42;3.03;;;2.73;;
1320;SDS011;653;51.480;11.992;2023-06-14T00:51:08;4.50;;;3.30;;
1320;SDS011;653;51.480;11.992;2023-06-14T00:53:35;3.00;;;2.73;;
1320;SDS011;653;51.480;11.992;2023-06-14T00:56:00;3.30;;;3.00;;
1320;SDS011;653;51.480;11.992;2023-06-14T00:58:27;4.80;;;3.10;;
1320;SDS011;653;51.480;11.992;2023-06-14T01:00:54;3.47;;;3.17;;
1320;SDS011;653;51.480;11.992;2023-06-14T01:03:21;4.20;;;3.20;;
1320;SDS011;653;51.480;11.992;2023-06-14T01:05:53;4.67;;;3.20;;
1320;SDS011;653;51.480;11.992;2023-06-14T01:11:18;4.50;;;3.80;;
1320;SDS011;653;51.480;11.992;2023-06-14T01:13:49;3.90;;;3.40;;
1320;SDS011;653;51.480;11.992;2023-06-14T01:16:16;4.47;;;3.67;;
1320;SDS011;653;51.480;11.992;2023-06-14T01:18:43;3.83;;;3.53;;
1320;SDS011;653;51.480;11.992;2023-06-14T01:21:21;5.03;;;3.07;;
1320;SDS011;653;51.480;11.992;2023-06-14T01:23:47;4.80;;;3.30;;
1320;SDS011;653;51.480;11.992;2023-06-14T01:26:19;4.40;;;3.10;;
1320;SDS011;653;51.480;11.992;2023-06-14T01:28:50;4.40;;;3.80;;
1320;SDS011;653;51.480;11.992;2023-06-14T01:31:19;4.60;;;3.40;;
1320;SDS011;653;51.480;11.992;2023-06-14T01:33:48;5.13;;;3.20;;
1320;SDS011;653;51.480;11.992;2023-06-14T01:36:19;4.33;;;3.47;;
1320;SDS011;653;51.480;11.992;2023-06-14T01:38:46;3.83;;;3.40;;
1320;SDS011;653;51.480;11.992;2023-06-14T01:41:15;3.63;;;3.33;;
1320;SDS011;653;51.480;11.992;2023-06-14T01:43:42;7.57;;;4.40;;
1320;SDS011;653;51.480;11.992;2023-06-14T01:46:08;5.53;;;4.00;;
1320;SDS011;653;51.480;11.992;2023-06-14T01:48:36;4.90;;;3.60;;
1320;SDS011;653;51.480;11.992;2023-06-14T01:51:03;4.03;;;3.27;;
1320;SDS011;653;51.480;11.992;2023-06-14T01:53:28;4.43;;;3.50;;
1320;SDS011;653;51.480;11.992;2023-06-14T01:55:54;3.70;;;2.87;;
1320;SDS011;653;51.480;11.992;2023-06-14T01:58:21;6.43;;;3.50;;
1320;SDS011;653;51.480;11.992;2023-06-14T02:00:48;4.00;;;3.60;;
1320;SDS011;653;51.480;11.992;2023-06-14T02:03:13;4.50;;;3.47;;
1320;SDS011;653;51.480;11.992;2023-06-14T02:05:41;7.63;;;3.73;;
1320;SDS011;653;51.480;11.992;2023-06-14T02:08:07;3.63;;;3.30;;
1320;SDS011;653;51.480;11.992;2023-06-14T02:10:32;3.93;;;3.53;;
1320;SDS011;653;51.480;11.992;2023-06-14T02:12:58;4.37;;;2.70;;
1320;SDS011;653;51.480;11.992;2023-06-14T02:15:23;4.20;;;3.30;;
1320;SDS011;653;51.480;11.992;2023-06-14T02:17:50;4.00;;;3.60;;
1320;SDS011;653;51.480;11.992;2023-06-14T02:20:16;4.33;;;3.70;;
1320;SDS011;653;51.480;11.992;2023-06-14T02:22:44;6.77;;;3.67;;
1320;SDS011;653;51.480;11.992;2023-06-14T02:25:10;6.90;;;3.73;;
1320;SDS011;653;51.480;11.992;2023-06-14T02:27:37;6.60;;;4.20;;
1320;SDS011;653;51.480;11.992;2023-06-14T02:30:03;3.40;;;3.10;;
1320;SDS011;653;51.480;11.992;2023-06-14T02:32:30;3.80;;;3.37;;
1320;SDS011;653;51.480;11.992;2023-06-14T02:34:57;4.00;;;3.03;;
1320;SDS011;653;51.480;11.992;2023-06-14T02:37:24;4.00;;;3.50;;
1320;SDS011;653;51.480;11.992;2023-06-14T02:39:50;5.53;;;3.47;;
1320;SDS011;653;51.480;11.992;2023-06-14T02:42:17;4.13;;;3.73;;
1320;SDS011;653;51.480;11.992;2023-06-14T02:44:42;5.60;;;3.50;;
1320;SDS011;653;51.480;11.992;2023-06-14T02:47:08;5.90;;;3.93;;
1320;SDS011;653;51.480;11.992;2023-06-14T02:49:35;5.40;;;3.63;;
1320;SDS011;653;51.480;11.992;2023-06-14T02:52:01;5.17;;;4.67;;
1320;SDS011;653;51.480;11.992;2023-06-14T02:54:29;5.83;;;3.90;;
1320;SDS011;653;51.480;11.992;2023-06-14T02:56:54;6.77;;;3.73;;
1320;SDS011;653;51.480;11.992;2023-06-14T02:59:20;8.73;;;4.53;;
1320;SDS011;653;51.480;11.992;2023-06-14T03:01:46;4.97;;;3.80;;
1320;SDS011;653;51.480;11.992;2023-06-14T03:04:11;7.27;;;3.40;;
1320;SDS011;653;51.480;11.992;2023-06-14T03:06:38;5.37;;;4.00;;
1320;SDS011;653;51.480;11.992;2023-06-14T03:09:05;5.70;;;4.13;;
1320;SDS011;653;51.480;11.992;2023-06-14T03:11:32;7.40;;;3.77;;
1320;SDS011;653;51.480;11.992;2023-06-14T03:13:58;7.00;;;3.83;;
1320;SDS011;653;51.480;11.992;2023-06-14T03:16:25;3.70;;;3.33;;
1320;SDS011;653;51.480;11.992;2023-06-14T03:18:54;4.50;;;3.60;;
1320;SDS011;653;51.480;11.992;2023-06-14T03:21:20;5.00;;;3.90;;
1320;SDS011;653;51.480;11.992;2023-06-14T03:23:47;5.63;;;3.37;;
1320;SDS011;653;51.480;11.992;2023-06-14T03:26:15;5.27;;;4.00;;
1320;SDS011;653;51.480;11.992;2023-06-14T03:28:47;3.93;;;3.53;;
1320;SDS011;653;51.480;11.992;2023-06-14T03:31:16;5.97;;;4.23;;
1320;SDS011;653;51.480;11.992;2023-06-14T03:33:41;4.23;;;3.83;;
1320;SDS011;653;51.480;11.992;2023-06-14T03:36:06;7.30;;;3.60;;
1320;SDS011;653;51.480;11.992;2023-06-14T03:38:33;4.23;;;3.90;;
1320;SDS011;653;51.480;11.992;2023-06-14T03:40:59;4.53;;;4.00;;
1320;SDS011;653;51.480;11.992;2023-06-14T03:43:26;5.10;;;4.60;;
1320;SDS011;653;51.480;11.992;2023-06-14T03:45:53;4.70;;;4.03;;
1320;SDS011;653;51.480;11.992;2023-06-14T03:48:18;4.07;;;3.63;;
1320;SDS011;653;51.480;11.992;2023-06-14T03:50:44;4.87;;;4.00;;
1320;SDS011;653;51.480;11.992;2023-06-14T03:53:10;4.77;;;3.80;;
1320;SDS011;653;51.480;11.992;2023-06-14T03:55:36;5.67;;;4.40;;
1320;SDS011;653;51.480;11.992;2023-06-14T03:58:04;4.83;;;3.83;;
1320;SDS011;653;51.480;11.992;2023-06-14T04:00:31;4.63;;;4.23;;
1320;SDS011;653;51.480;11.992;2023-06-14T04:02:58;4.10;;;3.80;;
1320;SDS011;653;51.480;11.992;2023-06-14T04:05:25;5.50;;;3.80;;
1320;SDS011;653;51.480;11.992;2023-06-14T04:07:51;4.93;;;4.47;;
1320;SDS011;653;51.480;11.992;2023-06-14T04:10:18;5.53;;;3.50;;
1320;SDS011;653;51.480;11.992;2023-06-14T04:12:46;4.30;;;3.90;;
1320;SDS011;653;51.480;11.992;2023-06-14T04:15:13;5.50;;;3.80;;
1320;SDS011;653;51.480;11.992;2023-06-14T04:17:40;4.33;;;3.93;;
1320;SDS011;653;51.480;11.992;2023-06-14T04:20:06;6.30;;;4.10;;
1320;SDS011;653;51.480;11.992;2023-06-14T04:22:36;9.70;;;5.03;;
1320;SDS011;653;51.480;11.992;2023-06-14T04:25:01;7.97;;;3.80;;
1320;SDS011;653;51.480;11.992;2023-06-14T04:27:28;5.87;;;4.37;;
1320;SDS011;653;51.480;11.992;2023-06-14T04:29:57;4.30;;;3.90;;
1320;SDS011;653;51.480;11.992;2023-06-14T04:32:26;5.60;;;4.60;;
1320;SDS011;653;51.480;11.992;2023-06-14T04:34:55;4.43;;;4.00;;
1320;SDS011;653;51.480;11.992;2023-06-14T04:37:23;7.10;;;3.80;;
1320;SDS011;653;51.480;11.992;2023-06-14T04:39:49;5.37;;;4.13;;
1320;SDS011;653;51.480;11.992;2023-06-14T04:42:17;5.03;;;4.13;;
1320;SDS011;653;51.480;11.992;2023-06-14T04:44:47;7.50;;;5.00;;
1320;SDS011;653;51.480;11.992;2023-06-14T04:47:13;6.17;;;5.07;;
1320;SDS011;653;51.480;11.992;2023-06-14T04:49:43;8.57;;;5.30;;
1320;SDS011;653;51.480;11.992;2023-06-14T04:52:10;4.53;;;3.90;;
1320;SDS011;653;51.480;11.992;2023-06-14T04:54:39;4.97;;;4.57;;
1320;SDS011;653;51.480;11.992;2023-06-14T04:57:11;7.10;;;4.37;;
1320;SDS011;653;51.480;11.992;2023-06-14T04:59:44;8.70;;;4.80;;
1320;SDS011;653;51.480;11.992;2023-06-14T05:02:10;6.27;;;5.50;;
1320;SDS011;653;51.480;11.992;2023-06-14T05:04:38;5.97;;;5.40;;
1320;SDS011;653;51.480;11.992;2023-06-14T05:07:07;7.27;;;5.60;;
1320;SDS011;653;51.480;11.992;2023-06-14T05:09:35;8.70;;;5.10;;
1320;SDS011;653;51.480;11.992;2023-06-14T05:12:02;6.37;;;5.70;;
1320;SDS011;653;51.480;11.992;2023-06-14T05:14:29;5.60;;;5.10;;
1320;SDS011;653;51.480;11.992;2023-06-14T05:16:56;6.17;;;5.57;;
1320;SDS011;653;51.480;11.992;2023-06-14T05:19:23;6.10;;;5.50;;
1320;SDS011;653;51.480;11.992;2023-06-14T05:21:50;6.73;;;4.87;;
1320;SDS011;653;51.480;11.992;2023-06-14T05:24:17;5.70;;;4.80;;
1320;SDS011;653;51.480;11.992;2023-06-14T05:26:42;5.40;;;4.90;;
1320;SDS011;653;51.480;11.992;2023-06-14T05:29:09;7.47;;;5.47;;
1320;SDS011;653;51.480;11.992;2023-06-14T05:31:36;6.27;;;5.67;;
1320;SDS011;653;51.480;11.992;2023-06-14T05:34:03;6.70;;;5.50;;
1320;SDS011;653;51.480;11.992;2023-06-14T05:36:30;6.80;;;5.70;;
1320;SDS011;653;51.480;11.992;2023-06-14T05:38:57;5.90;;;5.30;;
1320;SDS011;653;51.480;11.992;2023-06-14T05:41:28;6.20;;;5.67;;
1320;SDS011;653;51.480;11.992;2023-06-14T05:43:54;12.33;;;6.60;;
1320;SDS011;653;51.480;11.992;2023-06-14T05:46:21;8.50;;;5.60;;
1320;SDS011;653;51.480;11.992;2023-06-14T05:48:51;5.47;;;4.97;;
1320;SDS011;653;51.480;11.992;2023-06-14T05:51:18;7.83;;;6.53;;
1320;SDS011;653;51.480;11.992;2023-06-14T05:53:48;7.70;;;7.00;;
1320;SDS011;653;51.480;11.992;2023-06-14T05:56:14;8.63;;;6.27;;
1320;SDS011;653;51.480;11.992;2023-06-14T05:58:41;7.80;;;6.47;;
1320;SDS011;653;51.480;11.992;2023-06-14T06:01:06;6.63;;;6.00;;
1320;SDS011;653;51.480;11.992;2023-06-14T06:03:33;9.30;;;6.50;;
1320;SDS011;653;51.480;11.992;2023-06-14T06:06:00;6.93;;;5.83;;
1320;SDS011;653;51.480;11.992;2023-06-14T06:08:30;6.47;;;5.87;;
1320;SDS011;653;51.480;11.992;2023-06-14T06:10:57;8.30;;;6.67;;
1320;SDS011;653;51.480;11.992;2023-06-14T06:13:24;7.30;;;6.60;;
1320;SDS011;653;51.480;11.992;2023-06-14T06:15:49;9.87;;;6.23;;
1320;SDS011;653;51.480;11.992;2023-06-14T06:18:15;7.00;;;6.30;;
1320;SDS011;653;51.480;11.992;2023-06-14T06:20:42;6.93;;;5.80;;
1320;SDS011;653;51.480;11.992;2023-06-14T06:23:07;7.47;;;6.23;;
1320;SDS011;653;51.480;11.992;2023-06-14T06:25:36;7.23;;;6.13;;
1320;SDS011;653;51.480;11.992;2023-06-14T06:28:03;7.70;;;6.93;;
1320;SDS011;653;51.480;11.992;2023-06-14T06:30:29;9.03;;;6.30;;
1320;SDS011;653;51.480;11.992;2023-06-14T06:32:56;7.67;;;6.43;;
1320;SDS011;653;51.480;11.992;2023-06-14T06:35:22;8.07;;;5.90;;
1320;SDS011;653;51.480;11.992;2023-06-14T06:37:49;7.07;;;6.37;;
1320;SDS011;653;51.480;11.992;2023-06-14T06:40:14;6.77;;;6.07;;
1320;SDS011;653;51.480;11.992;2023-06-14T06:42:41;7.57;;;6.10;;
1320;SDS011;653;51.480;11.992;2023-06-14T06:45:06;9.80;;;6.07;;
1320;SDS011;653;51.480;11.992;2023-06-14T06:47:33;9.00;;;6.70;;
1320;SDS011;653;51.480;11.992;2023-06-14T06:49:59;5.93;;;5.43;;
1320;SDS011;653;51.480;11.992;2023-06-14T06:52:25;6.37;;;5.73;;
1320;SDS011;653;51.480;11.992;2023-06-14T06:54:52;6.60;;;6.00;;
1320;SDS011;653;51.480;11.992;2023-06-14T06:57:20;7.70;;;6.30;;
1320;SDS011;653;51.480;11.992;2023-06-14T06:59:49;6.47;;;5.87;;
1320;SDS011;653;51.480;11.992;2023-06-14T07:02:15;7.97;;;7.27;;
1320;SDS011;653;51.480;11.992;2023-06-14T07:04:42;6.60;;;5.10;;
1320;SDS011;653;51.480;11.992;2023-06-14T07:07:07;5.70;;;5.20;;
1320;SDS011;653;51.480;11.992;2023-06-14T07:09:36;6.03;;;5.43;;
1320;SDS011;653;51.480;11.992;2023-06-14T07:12:01;6.60;;;6.00;;
1320;SDS011;653;51.480;11.992;2023-06-14T07:14:28;7.77;;;6.13;;
1320;SDS011;653;51.480;11.992;2023-06-14T07:16:56;6.00;;;5.50;;
1320;SDS011;653;51.480;11.992;2023-06-14T07:19:23;7.03;;;6.27;;
1320;SDS011;653;51.480;11.992;2023-06-14T07:21:48;6.73;;;6.13;;
1320;SDS011;653;51.480;11.992;2023-06-14T07:24:15;6.40;;;5.83;;
1320;SDS011;653;51.480;11.992;2023-06-14T07:26:40;7.90;;;5.73;;
1320;SDS011;653;51.480;11.992;2023-06-14T07:29:06;6.13;;;5.53;;
1320;SDS011;653;51.480;11.992;2023-06-14T07:31:33;6.23;;;5.73;;
1320;SDS011;653;51.480;11.992;2023-06-14T07:34:00;5.73;;;5.33;;
1320;SDS011;653;51.480;11.992;2023-06-14T07:36:26;5.80;;;5.30;;
1320;SDS011;653;51.480;11.992;2023-06-14T07:38:52;6.27;;;5.67;;
1320;SDS011;653;51.480;11.992;2023-06-14T07:41:18;6.40;;;5.40;;
1320;SDS011;653;51.480;11.992;2023-06-14T07:43:43;6.67;;;5.87;;
1320;SDS011;653;51.480;11.992;2023-06-14T07:46:08;6.40;;;5.70;;
1320;SDS011;653;51.480;11.992;2023-06-14T07:48:35;7.03;;;5.50;;
1320;SDS011;653;51.480;11.992;2023-06-14T07:51:02;5.87;;;5.37;;
1320;SDS011;653;51.480;11.992;2023-06-14T07:53:29;7.43;;;5.93;;
1320;SDS011;653;51.480;11.992;2023-06-14T07:55:57;6.30;;;5.80;;
1320;SDS011;653;51.480;11.992;2023-06-14T07:58:23;5.90;;;5.40;;
1320;SDS011;653;51.480;11.992;2023-06-14T08:00:49;6.00;;;5.50;;
1320;SDS011;653;51.480;11.992;2023-06-14T08:03:16;5.80;;;5.40;;
1320;SDS011;653;51.480;11.992;2023-06-14T08:05:42;10.20;;;5.87;;
1320;SDS011;653;51.480;11.992;2023-06-14T08:08:08;6.87;;;6.20;;
1320;SDS011;653;51.480;11.992;2023-06-14T08:10:34;7.77;;;6.00;;
1320;SDS011;653;51.480;11.992;2023-06-14T08:13:01;6.33;;;5.70;;
1320;SDS011;653;51.480;11.992;2023-06-14T08:15:27;12.40;;;6.10;;
1320;SDS011;653;51.480;11.992;2023-06-14T08:17:53;8.13;;;5.73;;
1320;SDS011;653;51.480;11.992;2023-06-14T08:20:20;8.63;;;5.70;;
1320;SDS011;653;51.480;11.992;2023-06-14T08:22:47;8.53;;;5.80;;
1320;SDS011;653;51.480;11.992;2023-06-14T08:25:14;6.30;;;5.70;;
1320;SDS011;653;51.480;11.992;2023-06-14T08:27:41;6.83;;;5.43;;
1320;SDS011;653;51.480;11.992;2023-06-14T08:30:06;5.40;;;5.00;;
1320;SDS011;653;51.480;11.992;2023-06-14T08:32:34;6.63;;;5.60;;
1320;SDS011;653;51.480;11.992;2023-06-14T08:35:00;6.00;;;5.50;;
1320;SDS011;653;51.480;11.992;2023-06-14T08:37:27;5.60;;;4.87;;
1320;SDS011;653;51.480;11.992;2023-06-14T08:39:54;6.60;;;6.00;;
1320;SDS011;653;51.480;11.992;2023-06-14T08:42:20;8.80;;;5.30;;
1320;SDS011;653;51.480;11.992;2023-06-14T08:44:47;6.87;;;5.30;;
1320;SDS011;653;51.480;11.992;2023-06-14T08:47:13;7.10;;;5.17;;
1320;SDS011;653;51.480;11.992;2023-06-14T08:49:41;5.83;;;5.30;;
1320;SDS011;653;51.480;11.992;2023-06-14T08:52:12;6.00;;;5.40;;
1320;SDS011;653;51.480;11.992;2023-06-14T08:54:39;6.40;;;5.80;;
1320;SDS011;653;51.480;11.992;2023-06-14T08:57:12;5.70;;;5.30;;
1320;SDS011;653;51.480;11.992;2023-06-14T08:59:46;6.33;;;5.70;;
1320;SDS011;653;51.480;11.992;2023-06-14T09:02:14;5.17;;;4.67;;
1320;SDS011;653;51.480;11.992;2023-06-14T09:04:43;5.63;;;5.23;;
1320;SDS011;653;51.480;11.992;2023-06-14T09:07:11;6.53;;;5.87;;
1320;SDS011;653;51.480;11.992;2023-06-14T09:09:40;6.43;;;5.93;;
1320;SDS011;653;51.480;11.992;2023-06-14T09:12:09;6.00;;;5.40;;
1320;SDS011;653;51.480;11.992;2023-06-14T09:14:37;6.73;;;5.47;;
1320;SDS011;653;51.480;11.992;2023-06-14T09:17:05;5.37;;;4.87;;
1320;SDS011;653;51.480;11.992;2023-06-14T09:19:30;5.03;;;4.63;;
1320;SDS011;653;51.480;11.992;2023-06-14T09:21:56;5.80;;;5.23;;
1320;SDS011;653;51.480;11.992;2023-06-14T09:24:21;4.90;;;4.50;;
1320;SDS011;653;51.480;11.992;2023-06-14T09:26:51;5.00;;;4.50;;
1320;SDS011;653;51.480;11.992;2023-06-14T09:29:21;5.27;;;4.77;;
1320;SDS011;653;51.480;11.992;2023-06-14T09:31:48;6.27;;;5.67;;
1320;SDS011;653;51.480;11.992;2023-06-14T09:34:13;7.00;;;5.57;;
1320;SDS011;653;51.480;11.992;2023-06-14T09:36:40;5.93;;;5.47;;
1320;SDS011;653;51.480;11.992;2023-06-14T09:39:07;5.20;;;4.63;;
1320;SDS011;653;51.480;11.992;2023-06-14T09:41:40;6.60;;;4.87;;
1320;SDS011;653;51.480;11.992;2023-06-14T09:44:08;4.90;;;4.37;;
1320;SDS011;653;51.480;11.992;2023-06-14T09:46:35;5.17;;;4.70;;
1320;SDS011;653;51.480;11.992;2023-06-14T09:49:04;4.93;;;4.53;;
1320;SDS011;653;51.480;11.992;2023-06-14T09:51:30;4.50;;;4.10;;
1320;SDS011;653;51.480;11.992;2023-06-14T09:53:58;5.10;;;4.70;;
1320;SDS011;653;51.480;11.992;2023-06-14T09:56:26;4.57;;;4.17;;
1320;SDS011;653;51.480;11.992;2023-06-14T09:59:04;4.80;;;4.00;;
1320;SDS011;653;51.480;11.992;2023-06-14T10:01:31;7.80;;;4.60;;
1320;SDS011;653;51.480;11.992;2023-06-14T16:37:32;4.80;;;4.40;;
1320;SDS011;653;51.480;11.992;2023-06-14T16:39:58;4.20;;;3.90;;
1320;SDS011;653;51.480;11.992;2023-06-14T16:42:26;5.70;;;5.00;;
1320;SDS011;653;51.480;11.992;2023-06-14T16:44:52;8.43;;;4.50;;
1320;SDS011;653;51.480;11.992;2023-06-14T16:47:19;5.30;;;4.40;;
1320;SDS011;653;51.480;11.992;2023-06-14T16:49:46;5.10;;;4.60;;
1320;SDS011;653;51.480;11.992;2023-06-14T16:52:11;6.03;;;3.90;;
1320;SDS011;653;51.480;11.992;2023-06-14T16:54:38;5.53;;;5.03;;
1320;SDS011;653;51.480;11.992;2023-06-14T16:57:05;5.27;;;3.80;;
1320;SDS011;653;51.480;11.992;2023-06-14T16:59:31;4.60;;;4.17;;
1320;SDS011;653;51.480;11.992;2023-06-14T17:02:04;6.30;;;4.28;;
1320;SDS011;653;51.480;11.992;2023-06-14T17:04:31;7.90;;;5.30;;
1320;SDS011;653;51.480;11.992;2023-06-14T17:06:58;7.00;;;4.50;;
1320;SDS011;653;51.480;11.992;2023-06-14T17:09:25;11.85;;;4.57;;
1320;SDS011;653;51.480;11.992;2023-06-14T17:11:53;10.20;;;4.83;;
1320;SDS011;653;51.480;11.992;2023-06-14T17:14:18;4.63;;;4.20;;
1320;SDS011;653;51.480;11.992;2023-06-14T17:16:45;4.10;;;3.80;;
1320;SDS011;653;51.480;11.992;2023-06-14T17:19:12;4.30;;;4.00;;
1320;SDS011;653;51.480;11.992;2023-06-14T17:21:39;6.35;;;4.72;;
1320;SDS011;653;51.480;11.992;2023-06-14T17:24:06;4.97;;;4.57;;
1320;SDS011;653;51.480;11.992;2023-06-14T17:26:32;5.35;;;4.85;;
1320;SDS011;653;51.480;11.992;2023-06-14T17:28:59;11.80;;;10.38;;
1320;SDS011;653;51.480;11.992;2023-06-14T17:31:26;5.00;;;4.50;;
1320;SDS011;653;51.480;11.992;2023-06-14T17:33:53;4.70;;;4.18;;
1320;SDS011;653;51.480;11.992;2023-06-14T17:36:18;5.18;;;4.05;;
1320;SDS011;653;51.480;11.992;2023-06-14T17:38:44;5.30;;;4.80;;
1320;SDS011;653;51.480;11.992;2023-06-14T17:41:11;4.72;;;4.32;;
1320;SDS011;653;51.480;11.992;2023-06-14T17:43:40;4.43;;;4.07;;
1320;SDS011;653;51.480;11.992;2023-06-14T17:46:06;4.95;;;4.32;;
1320;SDS011;653;51.480;11.992;2023-06-14T17:48:33;4.47;;;4.18;;
1320;SDS011;653;51.480;11.992;2023-06-14T17:51:02;5.53;;;4.83;;
1320;SDS011;653;51.480;11.992;2023-06-14T17:53:29;58.67;;;9.47;;
1320;SDS011;653;51.480;11.992;2023-06-14T17:55:56;5.03;;;4.63;;
1320;SDS011;653;51.480;11.992;2023-06-14T17:58:23;5.53;;;5.00;;
1320;SDS011;653;51.480;11.992;2023-06-14T18:00:50;6.60;;;5.40;;
1320;SDS011;653;51.480;11.992;2023-06-14T18:03:17;5.30;;;4.90;;
1320;SDS011;653;51.480;11.992;2023-06-14T18:05:43;6.63;;;4.70;;
1320;SDS011;653;51.480;11.992;2023-06-14T18:08:11;5.37;;;4.83;;
1320;SDS011;653;51.480;11.992;2023-06-14T18:10:37;4.87;;;4.43;;
1320;SDS011;653;51.480;11.992;2023-06-14T18:13:04;7.20;;;5.20;;
1320;SDS011;653;51.480;11.992;2023-06-14T18:15:31;5.73;;;4.90;;
1320;SDS011;653;51.480;11.992;2023-06-14T18:17:58;7.63;;;4.27;;
1320;SDS011;653;51.480;11.992;2023-06-14T18:20:25;8.20;;;4.77;;
1320;SDS011;653;51.480;11.992;2023-06-14T18:22:50;5.87;;;4.53;;
1320;SDS011;653;51.480;11.992;2023-06-14T18:25:16;6.33;;;5.30;;
1320;SDS011;653;51.480;11.992;2023-06-14T18:27:48;5.67;;;5.07;;
1320;SDS011;653;51.480;11.992;2023-06-14T18:30:16;5.07;;;4.57;;
1320;SDS011;653;51.480;11.992;2023-06-14T18:32:42;6.53;;;4.60;;
1320;SDS011;653;51.480;11.992;2023-06-14T18:35:15;7.60;;;4.50;;
1320;SDS011;653;51.480;11.992;2023-06-14T18:37:42;5.97;;;5.43;;
1320;SDS011;653;51.480;11.992;2023-06-14T18:40:09;5.50;;;5.00;;
1320;SDS011;653;51.480;11.992;2023-06-14T18:42:37;5.33;;;4.80;;
1320;SDS011;653;51.480;11.992;2023-06-14T18:45:04;7.07;;;6.17;;
1320;SDS011;653;51.480;11.992;2023-06-14T18:47:32;6.77;;;6.07;;
1320;SDS011;653;51.480;11.992;2023-06-14T18:49:58;7.00;;;6.30;;
1320;SDS011;653;51.480;11.992;2023-06-14T18:52:25;6.80;;;5.83;;
1320;SDS011;653;51.480;11.992;2023-06-14T18:54:50;6.83;;;6.10;;
1320;SDS011;653;51.480;11.992;2023-06-14T18:57:17;6.37;;;5.67;;
1320;SDS011;653;51.480;11.992;2023-06-14T18:59:45;5.97;;;5.17;;
1320;SDS011;653;51.480;11.992;2023-06-14T19:02:22;5.97;;;5.37;;
1320;SDS011;653;51.480;11.992;2023-06-14T19:04:49;8.60;;;6.67;;
1320;SDS011;653;51.480;11.992;2023-06-14T19:07:16;11.97;;;10.77;;
1320;SDS011;653;51.480;11.992;2023-06-14T19:09:41;9.70;;;8.77;;
1320;SDS011;653;51.480;11.992;2023-06-14T19:12:07;7.67;;;6.87;;
1320;SDS011;653;51.480;11.992;2023-06-14T19:14:34;9.40;;;7.10;;
1320;SDS011;653;51.480;11.992;2023-06-14T19:17:01;6.77;;;6.10;;
1320;SDS011;653;51.480;11.992;2023-06-14T19:19:30;9.00;;;6.53;;
1320;SDS011;653;51.480;11.992;2023-06-14T19:21:57;6.77;;;6.17;;
1320;SDS011;653;51.480;11.992;2023-06-14T19:24:24;6.30;;;5.20;;
1320;SDS011;653;51.480;11.992;2023-06-14T19:26:49;6.37;;;5.63;;
1320;SDS011;653;51.480;11.992;2023-06-14T19:29:15;8.07;;;5.57;;
1320;SDS011;653;51.480;11.992;2023-06-14T19:31:41;7.13;;;5.97;;
1320;SDS011;653;51.480;11.992;2023-06-14T19:34:11;6.03;;;5.53;;
1320;SDS011;653;51.480;11.992;2023-06-14T19:36:38;6.07;;;5.47;;
1320;SDS011;653;51.480;11.992;2023-06-14T19:39:07;7.63;;;5.67;;
1320;SDS011;653;51.480;11.992;2023-06-14T19:41:33;6.17;;;5.20;;
1320;SDS011;653;51.480;11.992;2023-06-14T19:43:58;5.57;;;4.53;;
1320;SDS011;653;51.480;11.992;2023-06-14T19:46:25;6.13;;;5.50;;
1320;SDS011;653;51.480;11.992;2023-06-14T19:48:52;5.33;;;4.83;;
1320;SDS011;653;51.480;11.992;2023-06-14T19:51:17;5.80;;;5.20;;
1320;SDS011;653;51.480;11.992;2023-06-14T19:53:44;5.07;;;4.67;;
1320;SDS011;653;51.480;11.992;2023-06-14T19:56:11;7.80;;;4.90;;
1320;SDS011;653;51.480;11.992;2023-06-14T19:58:38;8.60;;;5.13;;
1320;SDS011;653;51.480;11.992;2023-06-14T20:01:05;6.60;;;5.17;;
1320;SDS011;653;51.480;11.992;2023-06-14T20:03:32;7.30;;;4.47;;
1320;SDS011;653;51.480;11.992;2023-06-14T20:05:58;6.60;;;5.27;;
1320;SDS011;653;51.480;11.992;2023-06-14T20:08:25;7.18;;;5.32;;
1320;SDS011;653;51.480;11.992;2023-06-14T20:10:56;5.93;;;5.30;;
1320;SDS011;653;51.480;11.992;2023-06-14T20:13:23;8.07;;;6.83;;
1320;SDS011;653;51.480;11.992;2023-06-14T20:15:48;8.90;;;6.37;;
1320;SDS011;653;51.480;11.992;2023-06-14T20:18:17;7.33;;;6.20;;
1320;SDS011;653;51.480;11.992;2023-06-14T20:20:48;8.30;;;7.50;;
1320;SDS011;653;51.480;11.992;2023-06-14T20:23:18;8.40;;;6.57;;
1320;SDS011;653;51.480;11.992;2023-06-14T20:25:43;8.20;;;7.40;;
1320;SDS011;653;51.480;11.992;2023-06-14T20:28:09;9.43;;;6.77;;
1320;SDS011;653;51.480;11.992;2023-06-14T20:30:37;7.17;;;6.47;;
1320;SDS011;653;51.480;11.992;2023-06-14T20:33:03;8.00;;;6.37;;
1320;SDS011;653;51.480;11.992;2023-06-14T20:35:28;6.40;;;5.80;;
1320;SDS011;653;51.480;11.992;2023-06-14T20:37:55;8.10;;;6.57;;
1320;SDS011;653;51.480;11.992;2023-06-14T20:40:22;6.63;;;6.07;;
1320;SDS011;653;51.480;11.992;2023-06-14T20:42:49;6.00;;;5.40;;
1320;SDS011;653;51.480;11.992;2023-06-14T20:45:16;6.50;;;5.73;;
1320;SDS011;653;51.480;11.992;2023-06-14T20:47:44;6.80;;;6.23;;
1320;SDS011;653;51.480;11.992;2023-06-14T20:50:10;6.50;;;5.90;;
1320;SDS011;653;51.480;11.992;2023-06-14T20:52:38;6.80;;;6.20;;
1320;SDS011;653;51.480;11.992;2023-06-14T20:55:05;5.73;;;5.23;;
1320;SDS011;653;51.480;11.992;2023-06-14T20:57:32;6.67;;;5.20;;
1320;SDS011;653;51.480;11.992;2023-06-14T20:59:58;8.43;;;5.70;;
1320;SDS011;653;51.480;11.992;2023-06-14T21:02:25;6.87;;;5.57;;
1320;SDS011;653;51.480;11.992;2023-06-14T21:04:52;7.80;;;6.30;;
1320;SDS011;653;51.480;11.992;2023-06-14T21:07:20;6.83;;;5.80;;
1320;SDS011;653;51.480;11.992;2023-06-14T21:09:46;6.10;;;5.50;;
1320;SDS011;653;51.480;11.992;2023-06-14T21:12:11;6.10;;;5.50;;
1320;SDS011;653;51.480;11.992;2023-06-14T21:14:37;6.50;;;5.73;;
1320;SDS011;653;51.480;11.992;2023-06-14T21:17:03;6.00;;;5.47;;
1320;SDS011;653;51.480;11.992;2023-06-14T21:19:31;5.97;;;5.47;;
1320;SDS011;653;51.480;11.992;2023-06-14T21:21:58;6.80;;;6.10;;
1320;SDS011;653;51.480;11.992;2023-06-14T21:24:25;6.70;;;6.03;;
1320;SDS011;653;51.480;11.992;2023-06-14T21:26:51;5.17;;;4.67;;
1320;SDS011;653;51.480;11.992;2023-06-14T21:29:18;7.00;;;5.50;;
1320;SDS011;653;51.480;11.992;2023-06-14T21:31:44;11.70;;;5.60;;
1320;SDS011;653;51.480;11.992;2023-06-14T21:34:11;7.53;;;5.00;;
1320;SDS011;653;51.480;11.992;2023-06-14T21:36:37;6.13;;;5.20;;
1320;SDS011;653;51.480;11.992;2023-06-14T21:39:03;5.90;;;4.93;;
1320;SDS011;653;51.480;11.992;2023-06-14T21:41:30;7.80;;;5.43;;
1320;SDS011;653;51.480;11.992;2023-06-14T21:43:55;7.87;;;5.97;;
1320;SDS011;653;51.480;11.992;2023-06-14T21:46:22;9.23;;;5.80;;
1320;SDS011;653;51.480;11.992;2023-06-14T21:48:47;7.37;;;4.97;;
1320;SDS011;653;51.480;11.992;2023-06-14T21:51:14;6.00;;;5.50;;